Terminal Aerodrome Forecast
Issued by NWS

Current Version | Previous Version | Graphics & Text | Print | Product List | Glossary On
Versions: 1 2 3 4 5 6 7 8 9 10 11 12 13 14 15 16 17 18 19 20 21 22 23 24
902
FTUS41 KILN 252325
TAFLUK
TAF
KLUK 252325Z 2600/2624 20004KT P6SM FEW050 SCT150 SCT250
     FM260600 20003KT P6SM VCSH BKN040 BKN080
      TEMPO 2608/2612 3SM BR
     FM261200 20006KT P6SM BKN040 BKN100
     FM261600 22008KT P6SM SCT040=

USA.gov is the U.S. government's official web portal to all federal, state and local government web resources and services.